createdAt,value
2023-05-10T00:01:31.472Z,14.10
2023-05-10T00:03:59.513Z,14.00
2023-05-10T00:06:27.881Z,14.10
2023-05-10T00:08:55.859Z,14.00
2023-05-10T00:11:23.887Z,13.90
2023-05-10T00:13:53.216Z,13.90
2023-05-10T00:16:21.289Z,13.80
2023-05-10T00:18:49.304Z,13.80
2023-05-10T00:21:17.330Z,13.80
2023-05-10T00:23:45.370Z,13.70
2023-05-10T00:26:13.382Z,13.70
2023-05-10T00:28:41.391Z,13.60
2023-05-10T00:31:10.850Z,13.50
2023-05-10T00:33:38.822Z,13.40
2023-05-10T00:36:08.438Z,13.40
2023-05-10T00:38:36.481Z,13.40
2023-05-10T00:41:04.776Z,13.40
2023-05-10T00:43:32.813Z,13.40
2023-05-10T00:46:01.440Z,13.30
2023-05-10T00:48:31.276Z,13.30
2023-05-10T00:50:59.212Z,13.30
2023-05-10T00:53:27.569Z,13.20
2023-05-10T00:55:56.046Z,13.10
2023-05-10T00:58:24.867Z,13.20
2023-05-10T01:00:53.724Z,13.20
2023-05-10T01:03:21.895Z,13.10
2023-05-10T01:05:51.447Z,13.10
2023-05-10T01:08:19.780Z,13.20
2023-05-10T01:10:49.988Z,13.20
2023-05-10T01:13:31.890Z,13.10
2023-05-10T01:16:00.837Z,13.10
2023-05-10T01:18:30.104Z,13.10
2023-05-10T01:21:06.996Z,13.00
2023-05-10T01:23:59.691Z,13.10
2023-05-10T01:27:00.134Z,13.10
2023-05-10T01:30:14.820Z,13.00
2023-05-10T01:32:54.857Z,12.90
2023-05-10T01:35:38.372Z,13.00
2023-05-10T01:38:23.819Z,12.90
2023-05-10T01:41:10.603Z,12.90
2023-05-10T01:43:49.446Z,12.80
2023-05-10T01:46:22.719Z,12.80
2023-05-10T01:48:57.664Z,12.80
2023-05-10T01:51:29.463Z,12.80
2023-05-10T01:54:02.354Z,12.80
2023-05-10T01:56:32.946Z,12.80
2023-05-10T01:59:04.186Z,12.80
2023-05-10T02:01:32.478Z,12.70
2023-05-10T02:04:03.085Z,12.70
2023-05-10T02:06:31.788Z,12.60
2023-05-10T02:08:59.935Z,12.60
2023-05-10T02:11:30.242Z,12.50
2023-05-10T02:13:59.839Z,12.60
2023-05-10T02:16:31.828Z,12.50
2023-05-10T02:19:03.428Z,12.50
2023-05-10T02:21:33.717Z,12.60
2023-05-10T02:24:03.776Z,12.50
2023-05-10T02:26:32.654Z,12.60
2023-05-10T02:29:01.460Z,12.50
2023-05-10T02:31:29.880Z,12.40
2023-05-10T02:33:59.612Z,12.50
2023-05-10T02:36:30.272Z,12.50
2023-05-10T02:39:00.803Z,12.50
2023-05-10T02:41:30.712Z,12.60
2023-05-10T02:44:01.776Z,12.60
2023-05-10T02:46:29.825Z,12.70
2023-05-10T02:48:57.872Z,12.70
2023-05-10T02:51:30.246Z,12.70
2023-05-10T02:53:59.278Z,12.70
2023-05-10T02:56:33.635Z,12.60
2023-05-10T02:59:01.725Z,12.70
2023-05-10T03:01:29.945Z,12.70
2023-05-10T03:03:58.284Z,12.70
2023-05-10T03:06:27.698Z,12.70
2023-05-10T03:08:55.706Z,12.70
2023-05-10T03:11:36.432Z,12.80
2023-05-10T03:14:16.079Z,12.80
2023-05-10T03:16:48.765Z,12.70
2023-05-10T03:19:20.344Z,12.70
2023-05-10T03:21:53.188Z,12.80
2023-05-10T03:24:24.068Z,12.80
2023-05-10T03:26:54.841Z,12.90
2023-05-10T03:29:23.854Z,12.90
2023-05-10T03:31:52.050Z,12.90
2023-05-10T03:34:25.645Z,12.90
2023-05-10T03:36:54.982Z,12.90
2023-05-10T03:39:23.244Z,12.90
2023-05-10T03:41:51.223Z,13.00
2023-05-10T03:44:19.710Z,13.00
2023-05-10T03:46:47.731Z,13.00
2023-05-10T03:49:15.780Z,12.90
2023-05-10T03:51:43.753Z,12.90
2023-05-10T03:54:13.145Z,12.90
2023-05-10T03:56:41.123Z,13.00
2023-05-10T03:59:09.786Z,13.00
2023-05-10T04:01:37.825Z,13.00
2023-05-10T04:04:06.068Z,12.90
2023-05-10T04:06:34.219Z,12.90
2023-05-10T04:09:05.040Z,12.90
2023-05-10T04:11:34.388Z,13.00
2023-05-10T04:14:02.331Z,13.00
2023-05-10T04:16:30.479Z,13.00
2023-05-10T04:18:58.467Z,13.00
2023-05-10T04:21:26.443Z,13.10
2023-05-10T04:23:54.525Z,13.10
2023-05-10T04:26:23.039Z,13.10
2023-05-10T04:28:52.382Z,13.20
2023-05-10T04:31:20.513Z,13.20
2023-05-10T04:33:48.623Z,13.30
2023-05-10T04:36:16.578Z,13.30
2023-05-10T04:38:44.755Z,13.30
2023-05-10T04:41:13.221Z,13.30
2023-05-10T04:43:41.334Z,13.30
2023-05-10T04:46:10.698Z,13.40
2023-05-10T04:48:38.763Z,13.40
2023-05-10T04:51:07.525Z,13.40
2023-05-10T04:53:35.530Z,13.50
2023-05-10T04:56:03.563Z,13.50
2023-05-10T04:58:31.568Z,13.60
2023-05-10T05:01:00.108Z,13.60
2023-05-10T05:03:29.564Z,13.60
2023-05-10T05:05:57.592Z,13.60
2023-05-10T05:08:25.726Z,13.60
2023-05-10T05:10:53.748Z,13.60
2023-05-10T05:13:21.777Z,13.70
2023-05-10T05:15:49.948Z,13.90
2023-05-10T05:18:17.922Z,14.10
2023-05-10T05:20:47.310Z,14.20
2023-05-10T05:23:15.290Z,14.10
2023-05-10T05:25:43.448Z,14.10
2023-05-10T05:28:11.414Z,14.10
2023-05-10T05:30:39.413Z,14.10
2023-05-10T05:33:07.526Z,14.20
2023-05-10T05:35:35.656Z,14.30
2023-05-10T05:38:05.054Z,14.20
2023-05-10T05:40:33.416Z,14.30
2023-05-10T05:43:01.412Z,14.30
2023-05-10T05:45:29.588Z,14.30
2023-05-10T05:47:57.657Z,14.50
2023-05-10T05:50:25.737Z,14.70
2023-05-10T05:52:53.782Z,14.80
2023-05-10T05:55:23.302Z,14.80
2023-05-10T05:57:51.283Z,14.90
2023-05-10T06:00:19.553Z,14.70
2023-05-10T06:02:47.686Z,14.90
2023-05-10T06:05:16.308Z,15.00
2023-05-10T06:07:44.578Z,15.00
2023-05-10T06:10:12.672Z,15.10
2023-05-10T06:12:42.004Z,15.10
2023-05-10T06:15:11.429Z,15.20
2023-05-10T06:17:39.854Z,15.30
2023-05-10T06:20:09.582Z,15.30
2023-05-10T06:22:37.676Z,15.50
2023-05-10T06:25:06.342Z,15.20
2023-05-10T06:27:34.347Z,15.20
2023-05-10T06:30:12.402Z,15.20
2023-05-10T06:32:41.246Z,15.30
2023-05-10T06:35:10.239Z,15.30
2023-05-10T06:37:38.236Z,15.20
2023-05-10T06:40:07.600Z,15.10
2023-05-10T06:42:35.599Z,14.90
2023-05-10T06:45:06.285Z,14.60
2023-05-10T06:47:35.894Z,14.70
2023-05-10T06:50:06.990Z,14.70
2023-05-10T06:52:34.963Z,14.60
2023-05-10T06:55:04.087Z,14.50
2023-05-10T06:57:32.387Z,14.60
2023-05-10T07:00:00.414Z,14.70
2023-05-10T07:02:30.193Z,14.60
2023-05-10T07:05:01.701Z,14.50
2023-05-10T07:07:31.047Z,14.50
2023-05-10T07:09:59.476Z,14.80
2023-05-10T07:12:27.735Z,15.20
2023-05-10T07:14:55.737Z,15.50
2023-05-10T07:17:23.812Z,15.90
2023-05-10T07:19:53.221Z,16.20
2023-05-10T07:22:21.198Z,16.50
2023-05-10T07:24:49.211Z,16.70
2023-05-10T07:27:17.208Z,17.10
2023-05-10T07:29:45.183Z,17.30
2023-05-10T07:32:13.272Z,17.00
2023-05-10T07:34:41.287Z,16.90
2023-05-10T07:37:10.725Z,17.20
2023-05-10T07:39:38.936Z,17.20
2023-05-10T07:42:06.948Z,17.40
2023-05-10T07:44:34.958Z,17.40
2023-05-10T07:47:02.999Z,17.20
2023-05-10T07:49:30.993Z,17.20
2023-05-10T07:51:59.016Z,17.30
2023-05-10T07:54:28.393Z,17.60
2023-05-10T07:56:56.405Z,17.60
2023-05-10T07:59:24.348Z,17.40
2023-05-10T08:01:52.369Z,17.10
2023-05-10T08:04:20.387Z,17.30
2023-05-10T08:06:48.404Z,17.20
2023-05-10T08:09:16.416Z,17.10
2023-05-10T08:11:45.722Z,16.70
2023-05-10T08:14:13.687Z,16.50
2023-05-10T08:16:41.632Z,16.60
2023-05-10T08:19:09.814Z,16.80
2023-05-10T08:21:38.360Z,17.00
2023-05-10T08:24:06.900Z,17.30
2023-05-10T08:26:35.559Z,17.50
2023-05-10T08:29:04.932Z,17.20
2023-05-10T08:31:33.119Z,17.30
2023-05-10T08:34:01.229Z,17.60
2023-05-10T08:36:29.286Z,17.10
2023-05-10T08:38:57.287Z,16.90
2023-05-10T08:41:26.728Z,16.70
2023-05-10T08:43:55.492Z,16.90
2023-05-10T08:46:25.373Z,17.10
2023-05-10T08:48:55.201Z,16.80
2023-05-10T08:51:27.666Z,17.10
2023-05-10T08:53:56.032Z,17.60
2023-05-10T08:56:24.617Z,17.70
2023-05-10T08:58:53.012Z,18.20
2023-05-10T09:01:24.362Z,18.50
2023-05-10T09:03:52.996Z,18.80
2023-05-10T09:06:21.472Z,19.10
2023-05-10T09:08:49.664Z,18.60
2023-05-10T09:11:19.323Z,18.50
2023-05-10T09:13:48.328Z,18.80
2023-05-10T09:16:21.980Z,19.20
2023-05-10T09:18:51.923Z,19.10
2023-05-10T09:21:22.746Z,18.90
2023-05-10T09:23:51.908Z,18.40
2023-05-10T09:26:24.483Z,17.40
2023-05-10T09:28:53.830Z,17.30
2023-05-10T09:31:22.095Z,17.50
2023-05-10T09:33:52.434Z,17.30
2023-05-10T09:36:20.472Z,17.40
2023-05-10T09:38:49.992Z,17.50
2023-05-10T09:41:19.445Z,17.40
2023-05-10T09:43:47.414Z,17.70
2023-05-10T09:46:15.610Z,18.30
2023-05-10T09:48:46.011Z,18.30
2023-05-10T09:51:22.496Z,18.50
2023-05-10T09:54:10.226Z,18.50
2023-05-10T09:56:40.011Z,18.70
2023-05-10T09:59:09.240Z,19.80
2023-05-10T10:01:37.302Z,20.30
2023-05-10T10:04:06.775Z,19.90
2023-05-10T10:06:39.923Z,19.80
2023-05-10T10:09:08.508Z,19.70
2023-05-10T10:11:38.666Z,18.90
2023-05-10T10:14:07.348Z,18.70
2023-05-10T10:16:35.418Z,18.40
2023-05-10T10:19:03.545Z,18.30
2023-05-10T10:21:32.041Z,18.60
2023-05-10T10:24:01.388Z,18.70
2023-05-10T10:26:29.744Z,18.60
2023-05-10T10:29:11.470Z,18.50
2023-05-10T10:31:43.901Z,19.00
2023-05-10T10:34:19.100Z,19.50
2023-05-10T10:36:48.607Z,19.50
2023-05-10T10:39:18.045Z,18.80
2023-05-10T10:41:52.564Z,18.60
2023-05-10T10:44:41.354Z,18.70
2023-05-10T10:47:34.139Z,18.70
2023-05-10T10:50:07.044Z,18.60
2023-05-10T10:52:36.351Z,18.30
2023-05-10T10:55:09.198Z,17.60
2023-05-10T10:57:49.450Z,17.40
2023-05-10T11:00:27.066Z,17.10
2023-05-10T11:02:57.735Z,16.70
2023-05-10T11:05:37.401Z,16.80
2023-05-10T11:08:19.999Z,17.00
2023-05-10T11:11:08.740Z,16.90
2023-05-10T11:13:40.835Z,16.60
2023-05-10T11:16:17.457Z,16.30
2023-05-10T11:18:58.526Z,16.30
2023-05-10T11:21:26.976Z,16.30
2023-05-10T11:23:58.184Z,16.60
2023-05-10T11:26:31.991Z,16.70
2023-05-10T11:29:01.693Z,16.80
2023-05-10T11:31:30.403Z,17.30
2023-05-10T11:34:00.890Z,17.60
2023-05-10T11:36:30.181Z,17.80
2023-05-10T11:38:59.066Z,17.50
2023-05-10T11:41:31.389Z,18.20
2023-05-10T11:44:00.406Z,18.60
2023-05-10T11:46:29.743Z,18.30
2023-05-10T11:49:02.504Z,17.80
2023-05-10T11:51:31.119Z,17.70
2023-05-10T11:53:59.540Z,17.50
2023-05-10T11:56:28.929Z,17.00
2023-05-10T11:58:58.194Z,16.70
2023-05-10T12:01:28.471Z,16.60
2023-05-10T12:03:59.750Z,16.70
2023-05-10T12:06:30.388Z,16.80
2023-05-10T12:08:58.570Z,16.80
2023-05-10T12:11:29.275Z,16.80
2023-05-10T12:13:58.037Z,17.10
2023-05-10T12:16:27.988Z,17.40
2023-05-10T12:18:58.892Z,18.10
2023-05-10T12:21:28.306Z,18.10
2023-05-10T12:24:01.862Z,18.10
2023-05-10T12:26:31.761Z,17.60
2023-05-10T12:29:14.737Z,17.70
2023-05-10T12:31:56.190Z,17.70
2023-05-10T12:34:29.702Z,17.90
2023-05-10T12:36:57.957Z,17.50
2023-05-10T12:39:26.240Z,17.80
2023-05-10T12:41:55.606Z,17.90
2023-05-10T12:44:23.660Z,18.00
2023-05-10T12:46:51.724Z,17.80
2023-05-10T12:49:20.594Z,17.80
2023-05-10T12:51:48.579Z,17.90
2023-05-10T12:54:16.643Z,18.20
2023-05-10T12:56:45.548Z,18.20
2023-05-10T12:59:15.008Z,18.20
2023-05-10T13:01:42.949Z,18.00
2023-05-10T13:04:11.114Z,17.60
2023-05-10T13:06:39.178Z,17.30
2023-05-10T13:09:07.192Z,16.80
2023-05-10T13:11:35.387Z,16.90
2023-05-10T13:14:04.156Z,17.10
2023-05-10T13:16:33.764Z,17.20
2023-05-10T13:19:01.905Z,17.30
2023-05-10T13:21:30.421Z,17.20
2023-05-10T13:23:59.014Z,17.30
2023-05-10T13:26:27.532Z,17.50
2023-05-10T13:28:56.564Z,17.80
2023-05-10T13:31:24.758Z,18.30
2023-05-10T13:33:54.293Z,18.40
2023-05-10T13:36:22.274Z,18.50
2023-05-10T13:38:50.389Z,17.90
2023-05-10T13:41:18.612Z,18.10
2023-05-10T13:43:46.585Z,18.20
2023-05-10T13:46:14.587Z,18.10
2023-05-10T13:48:42.698Z,18.10
2023-05-10T13:51:12.161Z,18.10
2023-05-10T13:53:40.178Z,18.40
2023-05-10T13:56:08.541Z,18.30
2023-05-10T13:58:37.425Z,17.80
2023-05-10T14:01:05.843Z,17.80
2023-05-10T14:03:34.023Z,18.30
2023-05-10T14:06:02.356Z,18.50
2023-05-10T14:08:31.710Z,18.00
2023-05-10T14:10:59.691Z,18.10
2023-05-10T14:13:27.667Z,18.50
2023-05-10T14:15:56.490Z,18.50
2023-05-10T14:18:24.692Z,19.10
2023-05-10T14:20:52.736Z,19.00
2023-05-10T14:23:24.984Z,18.90
2023-05-10T14:25:54.687Z,18.40
2023-05-10T14:28:23.660Z,18.70
2023-05-10T14:30:51.778Z,18.50
2023-05-10T14:33:20.178Z,18.50
2023-05-10T14:35:48.591Z,18.80
2023-05-10T14:38:17.050Z,19.00
2023-05-10T14:40:45.062Z,19.20
2023-05-10T14:43:14.377Z,19.50
2023-05-10T14:45:42.484Z,19.10
2023-05-10T14:48:13.172Z,18.80
2023-05-10T14:50:41.710Z,18.60
2023-05-10T14:53:10.045Z,19.00
2023-05-10T14:55:39.250Z,19.10
2023-05-10T14:58:07.285Z,18.90
2023-05-10T15:00:36.709Z,18.40
2023-05-10T15:03:05.505Z,18.10
2023-05-10T15:05:34.070Z,18.20
2023-05-10T15:08:02.538Z,18.60
2023-05-10T15:10:32.046Z,19.10
2023-05-10T15:13:01.460Z,19.20
2023-05-10T15:15:29.486Z,18.90
2023-05-10T15:17:58.884Z,19.20
2023-05-10T15:20:26.993Z,19.30
2023-05-10T15:22:54.991Z,19.30
2023-05-10T15:25:24.596Z,19.10
2023-05-10T15:27:52.698Z,18.80
2023-05-10T15:30:20.777Z,18.50
2023-05-10T15:32:51.309Z,18.30
2023-05-10T15:35:20.783Z,18.40
2023-05-10T15:37:53.078Z,18.50
2023-05-10T15:40:21.196Z,18.90
2023-05-10T15:42:49.259Z,19.00
2023-05-10T15:45:17.634Z,19.00
2023-05-10T15:47:46.261Z,19.00
2023-05-10T15:50:14.553Z,18.80
2023-05-10T15:52:43.940Z,18.30
2023-05-10T15:55:13.398Z,18.00
2023-05-10T15:57:42.398Z,18.00
2023-05-10T16:00:12.717Z,18.20
2023-05-10T16:02:41.019Z,18.30
2023-05-10T16:05:10.880Z,18.50
2023-05-10T16:07:39.748Z,18.40
2023-05-10T16:10:11.198Z,18.10
2023-05-10T16:12:39.706Z,18.00
2023-05-10T16:15:08.966Z,18.10
2023-05-10T16:17:37.358Z,18.20
2023-05-10T16:20:06.257Z,18.30
2023-05-10T16:22:34.409Z,18.30
2023-05-10T16:25:02.467Z,18.20
2023-05-10T16:27:33.465Z,18.10
2023-05-10T16:30:03.189Z,18.00
2023-05-10T16:32:31.280Z,18.30
2023-05-10T16:35:00.286Z,18.10
2023-05-10T16:37:28.711Z,17.70
2023-05-10T16:39:56.699Z,17.50
2023-05-10T16:42:25.999Z,17.30
2023-05-10T16:44:55.539Z,17.30
2023-05-10T16:47:26.563Z,17.40
2023-05-10T16:49:54.652Z,17.50
2023-05-10T16:52:23.807Z,17.50
2023-05-10T16:54:51.918Z,17.50
2023-05-10T16:57:19.893Z,17.50
2023-05-10T16:59:48.029Z,17.60
2023-05-10T17:02:17.541Z,17.50
2023-05-10T17:04:45.567Z,17.20
2023-05-10T17:07:14.170Z,17.10
2023-05-10T17:09:43.352Z,17.00
2023-05-10T17:12:11.394Z,17.00
2023-05-10T17:14:40.009Z,16.90
2023-05-10T17:17:08.129Z,16.90
2023-05-10T17:19:37.513Z,16.80
2023-05-10T17:22:05.708Z,16.60
2023-05-10T17:24:33.832Z,16.70
2023-05-10T17:27:03.536Z,16.70
2023-05-10T17:29:32.141Z,16.50
2023-05-10T17:32:00.769Z,16.50
2023-05-10T17:34:29.083Z,16.50
2023-05-10T17:36:58.542Z,16.40
2023-05-10T17:39:26.608Z,16.30
2023-05-10T17:41:54.748Z,16.30
2023-05-10T17:44:23.023Z,16.40
2023-05-10T17:46:51.204Z,16.40
2023-05-10T17:49:19.199Z,16.40
2023-05-10T17:51:48.067Z,16.40
2023-05-10T17:54:17.981Z,16.40
2023-05-10T17:56:46.312Z,16.40
2023-05-10T17:59:14.383Z,16.40
2023-05-10T18:01:42.614Z,16.40
2023-05-10T18:04:10.717Z,16.20
2023-05-10T18:06:39.172Z,16.00
2023-05-10T18:09:07.426Z,16.00
2023-05-10T18:11:38.620Z,15.90
2023-05-10T18:14:06.968Z,15.90
2023-05-10T18:16:35.272Z,15.90
2023-05-10T18:19:03.637Z,15.80
2023-05-10T18:21:31.814Z,15.80
2023-05-10T18:24:00.012Z,15.80
2023-05-10T18:26:28.087Z,15.70
2023-05-10T18:28:59.195Z,15.60
2023-05-10T18:31:28.817Z,15.60
2023-05-10T18:33:56.905Z,15.50
2023-05-10T18:36:25.431Z,15.40
2023-05-10T18:38:53.394Z,15.30
2023-05-10T18:41:21.474Z,15.30
2023-05-10T18:43:49.472Z,15.20
2023-05-10T18:46:18.958Z,15.10
2023-05-10T18:48:47.275Z,14.90
2023-05-10T18:51:15.530Z,14.80
2023-05-10T18:53:43.577Z,14.60
2023-05-10T18:56:11.624Z,14.50
2023-05-10T18:58:39.724Z,14.40
2023-05-10T19:01:08.895Z,14.40
2023-05-10T19:03:38.270Z,14.30
2023-05-10T19:06:06.400Z,14.20
2023-05-10T19:08:34.409Z,14.20
2023-05-10T19:11:02.355Z,14.20
2023-05-10T19:13:30.492Z,14.20
2023-05-10T19:16:03.769Z,14.20
2023-05-10T19:18:32.678Z,14.20
2023-05-10T19:21:04.519Z,14.20
2023-05-10T19:23:34.269Z,14.10
2023-05-10T19:26:02.585Z,14.10
2023-05-10T19:28:30.723Z,14.10
2023-05-10T19:30:59.103Z,14.20
2023-05-10T19:33:27.168Z,14.20
2023-05-10T19:35:56.415Z,14.20
2023-05-10T19:38:26.555Z,14.20
2023-05-10T19:40:58.059Z,14.20
2023-05-10T19:43:26.357Z,14.20
2023-05-10T19:45:54.707Z,14.20
2023-05-10T19:48:23.091Z,14.20
2023-05-10T19:50:51.695Z,14.10
2023-05-10T19:53:19.746Z,14.10
2023-05-10T19:55:49.046Z,14.10
2023-05-10T19:58:17.844Z,14.10
2023-05-10T20:00:46.061Z,14.10
2023-05-10T20:03:14.261Z,14.10
2023-05-10T20:05:42.668Z,14.10
2023-05-10T20:08:10.896Z,14.10
2023-05-10T20:10:39.020Z,14.20
2023-05-10T20:13:08.466Z,14.20
2023-05-10T20:15:36.616Z,14.20
2023-05-10T20:18:04.978Z,14.20
2023-05-10T20:20:33.256Z,14.20
2023-05-10T20:23:01.583Z,14.10
2023-05-10T20:25:29.751Z,14.10
2023-05-10T20:27:57.808Z,14.10
2023-05-10T20:30:27.209Z,14.10
2023-05-10T20:32:55.331Z,14.10
2023-05-10T20:35:23.878Z,14.10
2023-05-10T20:37:51.978Z,14.10
2023-05-10T20:40:20.208Z,14.10
2023-05-10T20:42:49.719Z,14.10
2023-05-10T20:45:17.965Z,14.00
2023-05-10T20:47:47.476Z,14.00
2023-05-10T20:50:15.752Z,14.10
2023-05-10T20:52:43.923Z,14.00
2023-05-10T20:55:12.658Z,14.00
2023-05-10T20:57:40.796Z,14.00
2023-05-10T21:00:10.428Z,13.90
2023-05-10T21:02:38.512Z,13.90
2023-05-10T21:05:08.815Z,13.90
2023-05-10T21:07:36.861Z,13.90
2023-05-10T21:10:05.336Z,13.90
2023-05-10T21:12:33.278Z,13.80
2023-05-10T21:15:01.259Z,13.80
2023-05-10T21:17:29.350Z,13.80
2023-05-10T21:19:57.378Z,13.80
2023-05-10T21:22:26.899Z,13.80
2023-05-10T21:24:55.731Z,13.70
2023-05-10T21:27:23.678Z,13.70
2023-05-10T21:29:52.150Z,13.70
2023-05-10T21:32:20.314Z,13.60
2023-05-10T21:34:48.340Z,13.60
2023-05-10T21:37:16.677Z,13.50
2023-05-10T21:39:46.146Z,13.50
2023-05-10T21:42:14.175Z,13.50
2023-05-10T21:44:42.222Z,13.50
2023-05-10T21:47:10.195Z,13.50
2023-05-10T21:49:38.397Z,13.50
2023-05-10T21:52:07.222Z,13.50
2023-05-10T21:54:37.218Z,13.50
2023-05-10T21:57:06.623Z,13.50
2023-05-10T21:59:34.695Z,13.40
2023-05-10T22:02:02.866Z,13.40
2023-05-10T22:04:30.921Z,13.40
2023-05-10T22:06:59.359Z,13.40
2023-05-10T22:09:27.478Z,13.30
2023-05-10T22:11:55.511Z,13.30
2023-05-10T22:14:24.863Z,13.30
2023-05-10T22:16:53.022Z,13.20
2023-05-10T22:19:21.078Z,13.20
2023-05-10T22:21:49.141Z,13.20
2023-05-10T22:24:17.126Z,13.20
2023-05-10T22:26:47.200Z,13.20
2023-05-10T22:29:15.479Z,13.10
2023-05-10T22:31:44.911Z,13.10
2023-05-10T22:34:18.774Z,13.10
2023-05-10T22:36:46.808Z,13.00
2023-05-10T22:39:14.826Z,13.00
2023-05-10T22:41:42.857Z,13.00
2023-05-10T22:44:10.844Z,13.00
2023-05-10T22:46:39.331Z,13.00
2023-05-10T22:49:09.185Z,12.90
2023-05-10T22:51:37.340Z,13.00
2023-05-10T22:54:07.069Z,13.00
2023-05-10T22:56:35.142Z,12.90
2023-05-10T22:59:03.196Z,12.90
2023-05-10T23:01:31.500Z,12.80
2023-05-10T23:03:59.577Z,12.80
2023-05-10T23:06:29.086Z,12.80
2023-05-10T23:08:57.129Z,12.80
2023-05-10T23:11:25.211Z,12.70
2023-05-10T23:13:53.172Z,12.80
2023-05-10T23:16:21.337Z,12.70
2023-05-10T23:18:49.445Z,12.70
2023-05-10T23:21:17.779Z,12.70
2023-05-10T23:23:47.117Z,12.60
2023-05-10T23:26:15.100Z,12.60
2023-05-10T23:28:43.075Z,12.60
2023-05-10T23:31:11.025Z,12.60
2023-05-10T23:33:38.973Z,12.60
2023-05-10T23:36:07.275Z,12.60
2023-05-10T23:38:35.280Z,12.60
2023-05-10T23:41:05.042Z,12.60
2023-05-10T23:43:33.105Z,12.60
2023-05-10T23:46:01.581Z,12.60
2023-05-10T23:48:29.736Z,12.60
2023-05-10T23:50:57.814Z,12.60
2023-05-10T23:53:26.001Z,12.60
2023-05-10T23:55:53.959Z,12.60
2023-05-10T23:58:23.298Z,12.60
